sensor_id;sensor_type;location;lat;lon;timestamp;pressure;altitude;pressure_sealevel;temperature;humidity
22261;BME280;11299;43.202;27.920;2022-11-15T00:00:33;102102.53;;;9.39;100.00
22261;BME280;11299;43.202;27.920;2022-11-15T00:02:59;102048.59;;;9.11;100.00
22261;BME280;11299;43.202;27.920;2022-11-15T00:05:25;102049.88;;;9.02;100.00
22261;BME280;11299;43.202;27.920;2022-11-15T00:07:50;102052.00;;;9.06;100.00
22261;BME280;11299;43.202;27.920;2022-11-15T00:10:16;102088.31;;;9.10;100.00
22261;BME280;11299;43.202;27.920;2022-11-15T00:12:41;102070.91;;;9.16;100.00
22261;BME280;11299;43.202;27.920;2022-11-15T00:15:07;102083.00;;;9.08;100.00
22261;BME280;11299;43.202;27.920;2022-11-15T00:17:33;102096.38;;;9.24;100.00
22261;BME280;11299;43.202;27.920;2022-11-15T00:19:58;102050.28;;;8.92;100.00
22261;BME280;11299;43.202;27.920;2022-11-15T00:22:24;102096.56;;;9.29;100.00
22261;BME280;11299;43.202;27.920;2022-11-15T00:24:49;102039.69;;;9.02;100.00
22261;BME280;11299;43.202;27.920;2022-11-15T00:27:15;102066.84;;;9.18;100.00
22261;BME280;11299;43.202;27.920;2022-11-15T00:29:40;101991.97;;;8.09;100.00
22261;BME280;11299;43.202;27.920;2022-11-15T00:32:11;102086.81;;;9.27;100.00
22261;BME280;11299;43.202;27.920;2022-11-15T00:34:36;102070.69;;;9.17;100.00
22261;BME280;11299;43.202;27.920;2022-11-15T00:37:01;102081.72;;;9.11;100.00
22261;BME280;11299;43.202;27.920;2022-11-15T00:39:27;102074.06;;;9.00;100.00
22261;BME280;11299;43.202;27.920;2022-11-15T00:41:53;102074.28;;;9.05;100.00
22261;BME280;11299;43.202;27.920;2022-11-15T00:44:18;102121.66;;;9.21;100.00
22261;BME280;11299;43.202;27.920;2022-11-15T00:46:44;102032.88;;;8.72;100.00
22261;BME280;11299;43.202;27.920;2022-11-15T00:49:09;102021.00;;;8.91;100.00
22261;BME280;11299;43.202;27.920;2022-11-15T00:51:35;102059.66;;;9.17;100.00
22261;BME280;11299;43.202;27.920;2022-11-15T00:54:00;102073.22;;;9.25;100.00
22261;BME280;11299;43.202;27.920;2022-11-15T00:56:25;102023.53;;;8.99;100.00
22261;BME280;11299;43.202;27.920;2022-11-15T00:58:52;102044.13;;;8.90;100.00
22261;BME280;11299;43.202;27.920;2022-11-15T01:01:18;101912.06;;;8.09;100.00
22261;BME280;11299;43.202;27.920;2022-11-15T01:03:43;102058.56;;;8.92;100.00
22261;BME280;11299;43.202;27.920;2022-11-15T01:06:10;102059.66;;;9.04;100.00
22261;BME280;11299;43.202;27.920;2022-11-15T01:08:38;102041.38;;;8.84;100.00
22261;BME280;11299;43.202;27.920;2022-11-15T01:11:08;101943.03;;;8.24;100.00
22261;BME280;11299;43.202;27.920;2022-11-15T01:13:35;101965.56;;;8.34;100.00
22261;BME280;11299;43.202;27.920;2022-11-15T01:16:16;102070.03;;;9.02;100.00
22261;BME280;11299;43.202;27.920;2022-11-15T01:18:42;102011.22;;;8.69;100.00
22261;BME280;11299;43.202;27.920;2022-11-15T01:21:16;102068.09;;;9.03;100.00
22261;BME280;11299;43.202;27.920;2022-11-15T01:23:42;102072.97;;;8.81;100.00
22261;BME280;11299;43.202;27.920;2022-11-15T01:26:12;101934.34;;;8.20;100.00
22261;BME280;11299;43.202;27.920;2022-11-15T01:28:39;102045.59;;;8.86;100.00
22261;BME280;11299;43.202;27.920;2022-11-15T01:31:12;102066.00;;;8.85;100.00
22261;BME280;11299;43.202;27.920;2022-11-15T01:33:38;102000.34;;;8.48;100.00
22261;BME280;11299;43.202;27.920;2022-11-15T01:36:10;102031.59;;;8.68;100.00
22261;BME280;11299;43.202;27.920;2022-11-15T01:38:36;102050.91;;;8.81;100.00
22261;BME280;11299;43.202;27.920;2022-11-15T01:41:02;101941.97;;;8.12;100.00
22261;BME280;11299;43.202;27.920;2022-11-15T01:43:36;102028.41;;;8.71;100.00
22261;BME280;11299;43.202;27.920;2022-11-15T01:46:06;102069.81;;;8.97;100.00
22261;BME280;11299;43.202;27.920;2022-11-15T01:48:37;102056.63;;;8.73;100.00
22261;BME280;11299;43.202;27.920;2022-11-15T01:51:07;102020.78;;;8.73;100.00
22261;BME280;11299;43.202;27.920;2022-11-15T01:53:33;102029.03;;;8.73;100.00
22261;BME280;11299;43.202;27.920;2022-11-15T01:56:04;101801.50;;;7.38;100.00
22261;BME280;11299;43.202;27.920;2022-11-15T01:58:31;102049.00;;;8.88;100.00
22261;BME280;11299;43.202;27.920;2022-11-15T02:00:56;101894.91;;;8.20;100.00
22261;BME280;11299;43.202;27.920;2022-11-15T02:03:26;101966.47;;;8.61;100.00
22261;BME280;11299;43.202;27.920;2022-11-15T02:05:54;102022.25;;;8.95;100.00
22261;BME280;11299;43.202;27.920;2022-11-15T02:08:20;102004.84;;;8.75;100.00
22261;BME280;11299;43.202;27.920;2022-11-15T02:10:46;101897.50;;;8.28;100.00
22261;BME280;11299;43.202;27.920;2022-11-15T02:13:16;102035.00;;;9.09;100.00
22261;BME280;11299;43.202;27.920;2022-11-15T02:16:33;102030.56;;;9.08;100.00
22261;BME280;11299;43.202;27.920;2022-11-15T02:18:41;102077.66;;;8.94;100.00
22261;BME280;11299;43.202;27.920;2022-11-15T02:21:37;101660.88;;;6.81;100.00
22261;BME280;11299;43.202;27.920;2022-11-15T02:42:46;102017.19;;;8.92;100.00
22261;BME280;11299;43.202;27.920;2022-11-15T02:45:39;102018.44;;;8.90;100.00
22261;BME280;11299;43.202;27.920;2022-11-15T02:48:06;102041.59;;;9.08;100.00
22261;BME280;11299;43.202;27.920;2022-11-15T02:50:32;102061.53;;;9.04;100.00
22261;BME280;11299;43.202;27.920;2022-11-15T02:52:58;101983.88;;;8.74;100.00
22261;BME280;11299;43.202;27.920;2022-11-15T02:55:34;102058.78;;;9.10;100.00
22261;BME280;11299;43.202;27.920;2022-11-15T03:00:34;101970.91;;;8.81;100.00
22261;BME280;11299;43.202;27.920;2022-11-15T03:11:16;101987.03;;;9.10;100.00
22261;BME280;11299;43.202;27.920;2022-11-15T03:14:02;102003.78;;;9.28;100.00
22261;BME280;11299;43.202;27.920;2022-11-15T03:16:38;102002.97;;;9.21;100.00
22261;BME280;11299;43.202;27.920;2022-11-15T03:19:13;101929.94;;;8.78;100.00
22261;BME280;11299;43.202;27.920;2022-11-15T03:21:40;101931.44;;;8.81;100.00
22261;BME280;11299;43.202;27.920;2022-11-15T03:24:07;102005.69;;;9.34;100.00
22261;BME280;11299;43.202;27.920;2022-11-15T03:26:35;101853.19;;;8.29;100.00
22261;BME280;11299;43.202;27.920;2022-11-15T03:29:09;101932.28;;;8.88;100.00
22261;BME280;11299;43.202;27.920;2022-11-15T03:31:41;101909.78;;;8.84;100.00
22261;BME280;11299;43.202;27.920;2022-11-15T03:35:05;101844.50;;;8.39;100.00
22261;BME280;11299;43.202;27.920;2022-11-15T03:37:05;101984.50;;;9.15;100.00
22261;BME280;11299;43.202;27.920;2022-11-15T03:39:32;101971.31;;;9.17;100.00
22261;BME280;11299;43.202;27.920;2022-11-15T03:44:56;101975.75;;;9.31;100.00
22261;BME280;11299;43.202;27.920;2022-11-15T03:47:29;101804.22;;;8.38;100.00
22261;BME280;11299;43.202;27.920;2022-11-15T03:50:17;101940.75;;;8.99;100.00
22261;BME280;11299;43.202;27.920;2022-11-15T03:52:45;101951.59;;;9.07;100.00
22261;BME280;11299;43.202;27.920;2022-11-15T03:55:14;101850.00;;;8.52;100.00
22261;BME280;11299;43.202;27.920;2022-11-15T03:57:40;101930.16;;;8.96;100.00
22261;BME280;11299;43.202;27.920;2022-11-15T04:00:06;101958.13;;;9.32;100.00
22261;BME280;11299;43.202;27.920;2022-11-15T04:02:32;101849.16;;;8.58;100.00
22261;BME280;11299;43.202;27.920;2022-11-15T04:04:57;101924.19;;;9.19;100.00
22261;BME280;11299;43.202;27.920;2022-11-15T04:07:23;101547.94;;;6.83;100.00
22261;BME280;11299;43.202;27.920;2022-11-15T04:09:48;101938.22;;;9.17;100.00
22261;BME280;11299;43.202;27.920;2022-11-15T04:12:34;101831.78;;;8.51;100.00
22261;BME280;11299;43.202;27.920;2022-11-15T04:15:05;101932.06;;;9.02;100.00
22261;BME280;11299;43.202;27.920;2022-11-15T04:20:07;101957.28;;;9.12;100.00
22261;BME280;11299;43.202;27.920;2022-11-15T04:22:55;101874.16;;;8.63;100.00
22261;BME280;11299;43.202;27.920;2022-11-15T04:25:40;101951.38;;;9.02;100.00
22261;BME280;11299;43.202;27.920;2022-11-15T04:28:06;101988.31;;;9.01;100.00
22261;BME280;11299;43.202;27.920;2022-11-15T04:30:32;101941.63;;;9.06;100.00
22261;BME280;11299;43.202;27.920;2022-11-15T04:32:57;101867.38;;;8.46;100.00
22261;BME280;11299;43.202;27.920;2022-11-15T04:35:23;101902.16;;;8.86;100.00
22261;BME280;11299;43.202;27.920;2022-11-15T04:37:48;101957.53;;;9.11;100.00
22261;BME280;11299;43.202;27.920;2022-11-15T04:40:14;101894.94;;;8.79;100.00
22261;BME280;11299;43.202;27.920;2022-11-15T04:42:41;101924.25;;;8.80;100.00
22261;BME280;11299;43.202;27.920;2022-11-15T04:45:08;101933.34;;;8.93;100.00
22261;BME280;11299;43.202;27.920;2022-11-15T04:47:33;101931.03;;;8.77;100.00
22261;BME280;11299;43.202;27.920;2022-11-15T04:49:59;101985.97;;;9.05;100.00
22261;BME280;11299;43.202;27.920;2022-11-15T04:52:24;101973.03;;;8.92;100.00
22261;BME280;11299;43.202;27.920;2022-11-15T04:54:50;101863.97;;;8.18;100.00
22261;BME280;11299;43.202;27.920;2022-11-15T04:57:15;101903.88;;;8.61;100.00
22261;BME280;11299;43.202;27.920;2022-11-15T04:59:41;101778.75;;;7.84;100.00
22261;BME280;11299;43.202;27.920;2022-11-15T05:02:06;101991.72;;;8.84;100.00
22261;BME280;11299;43.202;27.920;2022-11-15T05:04:31;101960.72;;;8.88;100.00
22261;BME280;11299;43.202;27.920;2022-11-15T05:06:57;101951.81;;;8.86;100.00
22261;BME280;11299;43.202;27.920;2022-11-15T05:09:22;101941.63;;;8.80;100.00
22261;BME280;11299;43.202;27.920;2022-11-15T05:11:48;101940.97;;;8.78;100.00
22261;BME280;11299;43.202;27.920;2022-11-15T05:14:13;101923.81;;;8.76;100.00
22261;BME280;11299;43.202;27.920;2022-11-15T05:16:39;101911.72;;;8.71;100.00
22261;BME280;11299;43.202;27.920;2022-11-15T05:19:05;101963.25;;;9.03;100.00
22261;BME280;11299;43.202;27.920;2022-11-15T05:21:31;101973.22;;;8.97;100.00
22261;BME280;11299;43.202;27.920;2022-11-15T05:23:57;101931.03;;;8.77;100.00
22261;BME280;11299;43.202;27.920;2022-11-15T05:26:23;101793.78;;;8.01;100.00
22261;BME280;11299;43.202;27.920;2022-11-15T05:28:56;101947.78;;;8.69;100.00
22261;BME280;11299;43.202;27.920;2022-11-15T05:31:22;101910.44;;;8.60;100.00
22261;BME280;11299;43.202;27.920;2022-11-15T05:33:49;101969.00;;;9.01;100.00
22261;BME280;11299;43.202;27.920;2022-11-15T05:36:34;101973.03;;;9.05;100.00
22261;BME280;11299;43.202;27.920;2022-11-15T05:39:01;101955.63;;;9.05;100.00
22261;BME280;11299;43.202;27.920;2022-11-15T05:41:32;101936.94;;;8.94;100.00
22261;BME280;11299;43.202;27.920;2022-11-15T05:44:00;101958.59;;;9.03;100.00
22261;BME280;11299;43.202;27.920;2022-11-15T05:46:26;101961.16;;;8.85;100.00
22261;BME280;11299;43.202;27.920;2022-11-15T05:48:53;101955.19;;;9.14;100.00
22261;BME280;11299;43.202;27.920;2022-11-15T05:51:21;101964.94;;;9.10;100.00
22261;BME280;11299;43.202;27.920;2022-11-15T05:53:48;101948.81;;;9.07;100.00
22261;BME280;11299;43.202;27.920;2022-11-15T05:56:14;101931.03;;;8.97;100.00
22261;BME280;11299;43.202;27.920;2022-11-15T05:58:39;101964.13;;;9.03;100.00
22261;BME280;11299;43.202;27.920;2022-11-15T06:01:05;101942.25;;;9.02;100.00
22261;BME280;11299;43.202;27.920;2022-11-15T06:03:31;101921.88;;;8.90;100.00
22261;BME280;11299;43.202;27.920;2022-11-15T06:05:56;101983.63;;;9.21;100.00
22261;BME280;11299;43.202;27.920;2022-11-15T06:08:22;101957.56;;;8.91;100.00
22261;BME280;11299;43.202;27.920;2022-11-15T06:10:47;101924.44;;;8.91;100.00
22261;BME280;11299;43.202;27.920;2022-11-15T06:13:13;101919.75;;;8.98;100.00
22261;BME280;11299;43.202;27.920;2022-11-15T06:15:39;101955.63;;;9.11;100.00
22261;BME280;11299;43.202;27.920;2022-11-15T06:18:04;101896.84;;;8.85;100.00
22261;BME280;11299;43.202;27.920;2022-11-15T06:20:30;101961.31;;;9.29;100.00
22261;BME280;11299;43.202;27.920;2022-11-15T06:23:03;101937.34;;;9.23;100.00
22261;BME280;11299;43.202;27.920;2022-11-15T06:25:29;101946.22;;;9.25;100.00
22261;BME280;11299;43.202;27.920;2022-11-15T06:27:56;101916.16;;;9.04;100.00
22261;BME280;11299;43.202;27.920;2022-11-15T06:30:23;101934.81;;;9.15;100.00
22261;BME280;11299;43.202;27.920;2022-11-15T06:32:48;101878.41;;;8.85;100.00
22261;BME280;11299;43.202;27.920;2022-11-15T06:35:14;101946.69;;;9.22;100.00
22261;BME280;11299;43.202;27.920;2022-11-15T06:37:41;101922.94;;;9.02;100.00
22261;BME280;11299;43.202;27.920;2022-11-15T06:40:08;101968.94;;;9.34;100.00
22261;BME280;11299;43.202;27.920;2022-11-15T06:42:34;101970.00;;;9.39;100.00
22261;BME280;11299;43.202;27.920;2022-11-15T06:44:59;101834.31;;;8.72;100.00
22261;BME280;11299;43.202;27.920;2022-11-15T06:47:25;101952.97;;;9.56;100.00
22261;BME280;11299;43.202;27.920;2022-11-15T06:49:51;101946.59;;;9.48;100.00
22261;BME280;11299;43.202;27.920;2022-11-15T06:52:16;101961.22;;;9.62;100.00
22261;BME280;11299;43.202;27.920;2022-11-15T06:54:44;101891.88;;;9.32;100.00
22261;BME280;11299;43.202;27.920;2022-11-15T06:57:10;101915.59;;;9.46;100.00
22261;BME280;11299;43.202;27.920;2022-11-15T06:59:35;101939.56;;;9.59;100.00
22261;BME280;11299;43.202;27.920;2022-11-15T07:02:01;101959.72;;;9.73;100.00
22261;BME280;11299;43.202;27.920;2022-11-15T07:04:26;101953.78;;;9.63;100.00
22261;BME280;11299;43.202;27.920;2022-11-15T07:06:52;101936.00;;;9.45;100.00
22261;BME280;11299;43.202;27.920;2022-11-15T07:09:17;101954.94;;;9.42;100.00
22261;BME280;11299;43.202;27.920;2022-11-15T07:11:43;101943.19;;;9.53;100.00
22261;BME280;11299;43.202;27.920;2022-11-15T07:14:08;101941.94;;;9.56;100.00
22261;BME280;11299;43.202;27.920;2022-11-15T07:16:34;101841.47;;;8.93;100.00
22261;BME280;11299;43.202;27.920;2022-11-15T07:18:59;101946.22;;;9.38;100.00
22261;BME280;11299;43.202;27.920;2022-11-15T07:21:25;101941.72;;;9.57;100.00
22261;BME280;11299;43.202;27.920;2022-11-15T07:23:51;101970.78;;;9.60;100.00
22261;BME280;11299;43.202;27.920;2022-11-15T07:26:16;101949.06;;;9.76;100.00
22261;BME280;11299;43.202;27.920;2022-11-15T07:28:42;101801.13;;;8.98;100.00
22261;BME280;11299;43.202;27.920;2022-11-15T07:31:08;101906.03;;;9.56;100.00
22261;BME280;11299;43.202;27.920;2022-11-15T07:33:34;101913.63;;;9.67;100.00
22261;BME280;11299;43.202;27.920;2022-11-15T07:36:01;101903.88;;;9.58;100.00
22261;BME280;11299;43.202;27.920;2022-11-15T07:38:28;101916.00;;;9.57;100.00
22261;BME280;11299;43.202;27.920;2022-11-15T07:41:02;101934.06;;;9.52;100.00
22261;BME280;11299;43.202;27.920;2022-11-15T07:43:28;101961.84;;;9.71;100.00
22261;BME280;11299;43.202;27.920;2022-11-15T07:45:55;101952.53;;;9.65;100.00
22261;BME280;11299;43.202;27.920;2022-11-15T07:48:20;101897.59;;;9.37;100.00
22261;BME280;11299;43.202;27.920;2022-11-15T07:50:46;101944.38;;;9.77;100.00
22261;BME280;11299;43.202;27.920;2022-11-15T07:53:11;101866.22;;;9.12;100.00
22261;BME280;11299;43.202;27.920;2022-11-15T07:55:39;101927.28;;;9.48;100.00
22261;BME280;11299;43.202;27.920;2022-11-15T07:58:07;101849.66;;;9.12;100.00
22261;BME280;11299;43.202;27.920;2022-11-15T08:00:33;101939.28;;;9.80;100.00
22261;BME280;11299;43.202;27.920;2022-11-15T08:03:10;101944.19;;;9.78;100.00
22261;BME280;11299;43.202;27.920;2022-11-15T08:05:37;101808.78;;;8.96;100.00
22261;BME280;11299;43.202;27.920;2022-11-15T08:08:04;101806.66;;;8.98;100.00
22261;BME280;11299;43.202;27.920;2022-11-15T08:10:30;101943.56;;;9.70;100.00
22261;BME280;11299;43.202;27.920;2022-11-15T08:13:07;101966.06;;;9.80;100.00
22261;BME280;11299;43.202;27.920;2022-11-15T08:15:34;101918.94;;;9.62;100.00
22261;BME280;11299;43.202;27.920;2022-11-15T08:18:02;101955.19;;;9.85;100.00
22261;BME280;11299;43.202;27.920;2022-11-15T08:20:29;101943.31;;;9.78;100.00
22261;BME280;11299;43.202;27.920;2022-11-15T08:22:56;101888.00;;;9.46;100.00
22261;BME280;11299;43.202;27.920;2022-11-15T08:25:22;101958.69;;;9.54;100.00
22261;BME280;11299;43.202;27.920;2022-11-15T08:27:47;101936.34;;;9.69;100.00
22261;BME280;11299;43.202;27.920;2022-11-15T08:30:16;101956.72;;;9.74;100.00
22261;BME280;11299;43.202;27.920;2022-11-15T08:32:41;101938.91;;;9.70;100.00
22261;BME280;11299;43.202;27.920;2022-11-15T08:35:07;101926.75;;;9.71;100.00
22261;BME280;11299;43.202;27.920;2022-11-15T08:37:33;101497.59;;;7.15;100.00
22261;BME280;11299;43.202;27.920;2022-11-15T08:39:59;101945.63;;;9.87;100.00
22261;BME280;11299;43.202;27.920;2022-11-15T08:42:24;101934.16;;;9.84;100.00
22261;BME280;11299;43.202;27.920;2022-11-15T08:44:50;101932.03;;;9.79;100.00
22261;BME280;11299;43.202;27.920;2022-11-15T08:47:15;101837.03;;;9.42;100.00
22261;BME280;11299;43.202;27.920;2022-11-15T08:49:40;101932.34;;;9.58;100.00
22261;BME280;11299;43.202;27.920;2022-11-15T08:52:06;101854.84;;;9.46;100.00
22261;BME280;11299;43.202;27.920;2022-11-15T08:54:31;101952.59;;;9.96;100.00
22261;BME280;11299;43.202;27.920;2022-11-15T08:56:57;101928.56;;;9.97;100.00
22261;BME280;11299;43.202;27.920;2022-11-15T08:59:22;101924.78;;;9.85;100.00
22261;BME280;11299;43.202;27.920;2022-11-15T09:01:48;101904.66;;;10.09;100.00
22261;BME280;11299;43.202;27.920;2022-11-15T09:04:13;101923.38;;;10.20;100.00
22261;BME280;11299;43.202;27.920;2022-11-15T09:06:39;101863.91;;;9.98;100.00
22261;BME280;11299;43.202;27.920;2022-11-15T09:09:04;101901.59;;;10.30;100.00
22261;BME280;11299;43.202;27.920;2022-11-15T09:11:30;101822.72;;;9.90;100.00
22261;BME280;11299;43.202;27.920;2022-11-15T09:13:55;101878.13;;;10.08;100.00
22261;BME280;11299;43.202;27.920;2022-11-15T09:16:21;101812.91;;;9.25;100.00
22261;BME280;11299;43.202;27.920;2022-11-15T09:18:46;101834.78;;;10.02;100.00
22261;BME280;11299;43.202;27.920;2022-11-15T09:21:12;101804.97;;;9.79;100.00
22261;BME280;11299;43.202;27.920;2022-11-15T09:23:37;101857.06;;;10.07;100.00
22261;BME280;11299;43.202;27.920;2022-11-15T09:26:04;101845.22;;;10.31;100.00
22261;BME280;11299;43.202;27.920;2022-11-15T09:28:30;101836.75;;;10.26;100.00
22261;BME280;11299;43.202;27.920;2022-11-15T09:31:03;101812.09;;;10.24;100.00
22261;BME280;11299;43.202;27.920;2022-11-15T09:33:29;101813.91;;;10.37;100.00
22261;BME280;11299;43.202;27.920;2022-11-15T09:36:00;101803.44;;;10.14;100.00
22261;BME280;11299;43.202;27.920;2022-11-15T09:38:26;101871.63;;;10.76;100.00
22261;BME280;11299;43.202;27.920;2022-11-15T09:41:07;101881.97;;;10.87;100.00
22261;BME280;11299;43.202;27.920;2022-11-15T09:49:00;101793.50;;;10.56;100.00
22261;BME280;11299;43.202;27.920;2022-11-15T09:51:45;101846.88;;;10.81;100.00
22261;BME280;11299;43.202;27.920;2022-11-15T09:56:51;101877.38;;;10.99;100.00
22261;BME280;11299;43.202;27.920;2022-11-15T10:02:46;101799.31;;;10.91;100.00
22261;BME280;11299;43.202;27.920;2022-11-15T10:05:17;101800.16;;;10.91;100.00
22261;BME280;11299;43.202;27.920;2022-11-15T10:10:34;101865.53;;;11.28;100.00
22261;BME280;11299;43.202;27.920;2022-11-15T10:13:02;101815.06;;;11.26;100.00
22261;BME280;11299;43.202;27.920;2022-11-15T10:15:28;101758.41;;;10.93;100.00
22261;BME280;11299;43.202;27.920;2022-11-15T10:21:02;101818.22;;;11.48;100.00
22261;BME280;11299;43.202;27.920;2022-11-15T10:23:36;101782.16;;;11.36;100.00
22261;BME280;11299;43.202;27.920;2022-11-15T10:26:08;101754.94;;;11.33;100.00
22261;BME280;11299;43.202;27.920;2022-11-15T10:28:36;101803.53;;;11.77;100.00
22261;BME280;11299;43.202;27.920;2022-11-15T10:31:01;101613.84;;;10.79;100.00
22261;BME280;11299;43.202;27.920;2022-11-15T10:33:35;101770.28;;;11.77;100.00
22261;BME280;11299;43.202;27.920;2022-11-15T10:38:51;101895.41;;;11.81;100.00
22261;BME280;11299;43.202;27.920;2022-11-15T10:46:34;101747.47;;;12.05;100.00
22261;BME280;11299;43.202;27.920;2022-11-15T10:49:33;101773.03;;;12.07;100.00
22261;BME280;11299;43.202;27.920;2022-11-15T10:52:12;101635.31;;;11.25;100.00
22261;BME280;11299;43.202;27.920;2022-11-15T10:54:46;101723.28;;;11.71;100.00
22261;BME280;11299;43.202;27.920;2022-11-15T10:57:15;101760.13;;;12.01;100.00
22261;BME280;11299;43.202;27.920;2022-11-15T10:59:46;101614.75;;;11.32;100.00
22261;BME280;11299;43.202;27.920;2022-11-15T11:02:35;101605.84;;;11.30;100.00
22261;BME280;11299;43.202;27.920;2022-11-15T11:05:19;101721.78;;;12.09;100.00
22261;BME280;11299;43.202;27.920;2022-11-15T11:08:02;101758.31;;;12.18;100.00
22261;BME280;11299;43.202;27.920;2022-11-15T11:10:29;101768.31;;;12.07;100.00
22261;BME280;11299;43.202;27.920;2022-11-15T11:12:54;101595.88;;;11.41;100.00
22261;BME280;11299;43.202;27.920;2022-11-15T11:15:22;101711.56;;;12.33;100.00
22261;BME280;11299;43.202;27.920;2022-11-15T11:20:45;101725.31;;;12.28;100.00
22261;BME280;11299;43.202;27.920;2022-11-15T11:36:51;101532.91;;;11.83;100.00
22261;BME280;11299;43.202;27.920;2022-11-15T11:42:37;101565.06;;;12.18;100.00
22261;BME280;11299;43.202;27.920;2022-11-15T11:47:40;101592.19;;;12.28;100.00
22261;BME280;11299;43.202;27.920;2022-11-15T11:50:18;101656.69;;;12.86;100.00
22261;BME280;11299;43.202;27.920;2022-11-15T11:55:23;101584.94;;;12.67;100.00
22261;BME280;11299;43.202;27.920;2022-11-15T12:00:24;101639.81;;;13.16;100.00
22261;BME280;11299;43.202;27.920;2022-11-15T12:06:11;101602.47;;;13.23;100.00
22261;BME280;11299;43.202;27.920;2022-11-15T12:08:49;101647.97;;;13.84;100.00
22261;BME280;11299;43.202;27.920;2022-11-15T12:11:32;101640.66;;;13.94;100.00
22261;BME280;11299;43.202;27.920;2022-11-15T12:14:04;101650.28;;;14.25;100.00
22261;BME280;11299;43.202;27.920;2022-11-15T12:16:33;101628.81;;;14.37;100.00
22261;BME280;11299;43.202;27.920;2022-11-15T12:19:01;101508.38;;;13.82;100.00
22261;BME280;11299;43.202;27.920;2022-11-15T12:24:32;101562.91;;;14.43;100.00
22261;BME280;11299;43.202;27.920;2022-11-15T12:29:40;101609.84;;;14.77;100.00
22261;BME280;11299;43.202;27.920;2022-11-15T12:32:23;101459.56;;;13.91;100.00
22261;BME280;11299;43.202;27.920;2022-11-15T12:34:50;101634.97;;;14.82;100.00
22261;BME280;11299;43.202;27.920;2022-11-15T12:42:44;101581.44;;;14.75;100.00
22261;BME280;11299;43.202;27.920;2022-11-15T12:45:34;101609.41;;;14.85;100.00
22261;BME280;11299;43.202;27.920;2022-11-15T12:58:42;101588.31;;;14.94;100.00
22261;BME280;11299;43.202;27.920;2022-11-15T13:01:09;101559.06;;;14.92;100.00
22261;BME280;11299;43.202;27.920;2022-11-15T13:03:36;101445.03;;;14.27;100.00
22261;BME280;11299;43.202;27.920;2022-11-15T13:06:39;101554.28;;;14.87;100.00
22261;BME280;11299;43.202;27.920;2022-11-15T13:14:58;101566.13;;;15.04;100.00
22261;BME280;11299;43.202;27.920;2022-11-15T13:17:25;101567.88;;;15.10;100.00
22261;BME280;11299;43.202;27.920;2022-11-15T13:20:44;101545.00;;;15.08;100.00
22261;BME280;11299;43.202;27.920;2022-11-15T13:30:40;101554.63;;;15.23;100.00
22261;BME280;11299;43.202;27.920;2022-11-15T13:33:37;101551.44;;;15.09;100.00
22261;BME280;11299;43.202;27.920;2022-11-15T13:36:25;101540.09;;;14.89;100.00
22261;BME280;11299;43.202;27.920;2022-11-15T13:39:00;101535.19;;;14.74;100.00
22261;BME280;11299;43.202;27.920;2022-11-15T13:41:29;101416.88;;;14.02;100.00
22261;BME280;11299;43.202;27.920;2022-11-15T13:43:57;101530.91;;;14.67;100.00
22261;BME280;11299;43.202;27.920;2022-11-15T13:46:28;101537.28;;;14.41;100.00
22261;BME280;11299;43.202;27.920;2022-11-15T13:51:35;101560.00;;;14.54;100.00
22261;BME280;11299;43.202;27.920;2022-11-15T13:56:35;101503.22;;;14.12;100.00
22261;BME280;11299;43.202;27.920;2022-11-15T13:59:14;101420.81;;;13.63;100.00
22261;BME280;11299;43.202;27.920;2022-11-15T14:01:42;101532.78;;;14.18;100.00
22261;BME280;11299;43.202;27.920;2022-11-15T14:04:13;101539.53;;;14.22;100.00
22261;BME280;11299;43.202;27.920;2022-11-15T14:06:49;101537.19;;;14.14;100.00
22261;BME280;11299;43.202;27.920;2022-11-15T14:09:32;101549.91;;;14.10;100.00
22261;BME280;11299;43.202;27.920;2022-11-15T14:11:59;101536.41;;;14.18;100.00
22261;BME280;11299;43.202;27.920;2022-11-15T14:14:29;101527.75;;;14.15;100.00
22261;BME280;11299;43.202;27.920;2022-11-15T14:17:00;101530.00;;;14.18;100.00
22261;BME280;11299;43.202;27.920;2022-11-15T14:24:40;101511.78;;;14.05;100.00
22261;BME280;11299;43.202;27.920;2022-11-15T14:27:21;101519.25;;;14.05;100.00
22261;BME280;11299;43.202;27.920;2022-11-15T14:29:47;101503.00;;;13.97;100.00
22261;BME280;11299;43.202;27.920;2022-11-15T14:32:23;101500.44;;;13.90;100.00
22261;BME280;11299;43.202;27.920;2022-11-15T14:34:57;101496.16;;;13.83;100.00
22261;BME280;11299;43.202;27.920;2022-11-15T14:37:31;101248.66;;;12.53;100.00
22261;BME280;11299;43.202;27.920;2022-11-15T14:39:59;101492.16;;;13.95;100.00
22261;BME280;11299;43.202;27.920;2022-11-15T14:42:25;101547.28;;;13.82;100.00
22261;BME280;11299;43.202;27.920;2022-11-15T14:44:51;101445.31;;;13.66;100.00
22261;BME280;11299;43.202;27.920;2022-11-15T14:47:17;101442.81;;;13.64;100.00
22261;BME280;11299;43.202;27.920;2022-11-15T14:49:42;101346.16;;;12.95;100.00
22261;BME280;11299;43.202;27.920;2022-11-15T14:52:31;101470.25;;;13.61;100.00
22261;BME280;11299;43.202;27.920;2022-11-15T14:55:00;101469.38;;;13.39;100.00
22261;BME280;11299;43.202;27.920;2022-11-15T14:57:27;101448.91;;;13.45;100.00
22261;BME280;11299;43.202;27.920;2022-11-15T14:59:53;101467.41;;;13.56;100.00
22261;BME280;11299;43.202;27.920;2022-11-15T15:02:21;101436.09;;;13.44;100.00
22261;BME280;11299;43.202;27.920;2022-11-15T15:04:48;101457.13;;;13.56;100.00